Terminal Aerodrome Forecast
Issued by NWS Omaha/Valley, NE

Home | Current Version | Previous Version | Text Only | Print | Product List | Glossary Off
Versions: 1 2 3 4 5 6 7 8 9 10 11 12 13 14 15 16 17 18 19 20 21 22 23 24 25 26 27 28 29 30 31 32 33 34 35 36 37 38

000
FTUS43 KOAX 230520
TAFOFK
TAF
KOFK 230520Z 2306/2406 18014G20KT P6SM BKN200 WS020/19040KT
     FM231200 18011KT P6SM BKN150
     FM231700 17015G23KT P6SM BKN070 PROB30 2319/2324 4SM TSRA
      OVC040CB
     FM240000 17010KT P6SM TS BKN080CB
     FM240400 20007KT P6SM BKN250=

USA.gov is the U.S. government's official web portal to all federal, state and local government web resources and services.